Terminal Aerodrome Forecast
Issued by NWS Albany, NY

Home | Current Version | Previous Version | Text Only | Print | Product List | Glossary On
Versions: 1 2 3 4 5 6 7 8 9 10 11 12 13 14 15 16 17 18
000
FTUS41 KALY 182022 AAA
TAFALB
TAF AMD
KALB 182022Z 1820/1918 17006KT P6SM VCSH BKN035 OVC080
      TEMPO 1820/1824 BKN030 OVC035
     FM190000 17004KT P6SM SCT015 OVC030
     FM191600 20011KT P6SM BKN030=

USA.gov is the U.S. government's official web portal to all federal, state and local government web resources and services.